createdAt,value
2019-01-27T00:01:44.205Z,97377.80
2019-01-27T00:07:48.760Z,97366.36
2019-01-27T00:13:53.769Z,97352.32
2019-01-27T00:19:58.315Z,97336.91
2019-01-27T00:26:02.957Z,97319.22
2019-01-27T00:32:07.773Z,97321.42
2019-01-27T00:38:13.054Z,97307.86
2019-01-27T00:44:17.648Z,97288.23
2019-01-27T00:50:22.244Z,97282.75
2019-01-27T00:56:26.952Z,97255.34
2019-01-27T01:02:32.491Z,97252.00
2019-01-27T01:08:37.184Z,97244.16
2019-01-27T01:14:41.953Z,97246.95
2019-01-27T01:20:46.825Z,97233.33
2019-01-27T01:26:51.556Z,97228.02
2019-01-27T01:32:56.430Z,97221.25
2019-01-27T01:39:00.979Z,97206.89
2019-01-27T01:45:10.826Z,97190.59
2019-01-27T01:51:15.658Z,97185.68
2019-01-27T01:57:20.220Z,97170.26
2019-01-27T02:03:24.802Z,97161.39
2019-01-27T02:09:29.361Z,97151.52
2019-01-27T02:15:47.084Z,97125.86
2019-01-27T02:21:51.724Z,97118.07
2019-01-27T02:27:57.804Z,97099.00
2019-01-27T02:34:02.690Z,97083.25
2019-01-27T02:40:10.111Z,97071.01
2019-01-27T02:46:14.668Z,97056.91
2019-01-27T02:52:19.227Z,97041.17
2019-01-27T02:58:23.767Z,97037.13
2019-01-27T03:04:28.328Z,97018.83
2019-01-27T03:10:33.091Z,96997.95
2019-01-27T03:16:37.666Z,96997.44
2019-01-27T03:22:45.102Z,96986.67
2019-01-27T03:28:49.991Z,96970.22
2019-01-27T03:34:54.752Z,96959.22
2019-01-27T03:40:59.445Z,96946.38
2019-01-27T03:47:04.126Z,96937.09
2019-01-27T03:53:08.948Z,96914.84
2019-01-27T03:59:13.935Z,96899.87
2019-01-27T04:05:18.714Z,96897.11
2019-01-27T04:11:23.628Z,96874.84
2019-01-27T04:17:28.202Z,96865.23
2019-01-27T04:23:32.743Z,96865.75
2019-01-27T04:29:37.430Z,96845.28
2019-01-27T04:35:42.022Z,96840.67
2019-01-27T04:41:46.716Z,96831.78
2019-01-27T04:47:56.799Z,96829.74
2019-01-27T04:54:01.335Z,96818.60
2019-01-27T05:00:13.513Z,96810.29
2019-01-27T05:06:18.173Z,96812.66
2019-01-27T05:12:22.717Z,96809.02
2019-01-27T05:18:28.055Z,96793.32
2019-01-27T05:24:32.604Z,96790.38
2019-01-27T05:30:37.759Z,96768.39
2019-01-27T05:36:42.676Z,96767.84
2019-01-27T05:42:47.274Z,96755.61
2019-01-27T05:48:51.969Z,96745.87
2019-01-27T05:54:56.708Z,96737.66
2019-01-27T06:01:01.456Z,96730.87
2019-01-27T06:07:06.064Z,96732.84
2019-01-27T06:13:11.052Z,96731.52
2019-01-27T06:19:20.239Z,96716.48
2019-01-27T06:25:26.187Z,96708.39
2019-01-27T06:31:31.279Z,96702.11
2019-01-27T06:37:36.097Z,96688.35
2019-01-27T06:43:40.956Z,96688.52
2019-01-27T06:49:45.673Z,96698.50
2019-01-27T06:55:50.216Z,96686.87
2019-01-27T07:01:56.664Z,96673.27
2019-01-27T07:08:01.061Z,96666.71
2019-01-27T07:14:27.950Z,96672.18
2019-01-27T07:20:34.370Z,96662.98
2019-01-27T07:26:55.241Z,96663.58
2019-01-27T07:33:15.990Z,96648.86
2019-01-27T07:39:28.053Z,96642.83
2019-01-27T07:45:34.332Z,96634.19
2019-01-27T07:51:43.320Z,96617.02
2019-01-27T07:57:52.482Z,96611.64
2019-01-27T08:04:01.373Z,96601.02
2019-01-27T08:10:11.297Z,96607.21
2019-01-27T08:16:23.072Z,96604.02
2019-01-27T08:22:32.334Z,96595.25
2019-01-27T08:28:39.811Z,96595.25
2019-01-27T08:35:01.178Z,96577.78
2019-01-27T08:41:07.361Z,96564.14
2019-01-27T08:47:13.242Z,96561.03
2019-01-27T08:53:17.981Z,96565.61
2019-01-27T08:59:22.687Z,96550.08
2019-01-27T09:05:28.891Z,96563.45
2019-01-27T09:11:41.210Z,96562.73
2019-01-27T09:17:47.830Z,96555.84
2019-01-27T09:23:54.086Z,96543.08
2019-01-27T09:30:00.605Z,96534.52
2019-01-27T09:36:07.400Z,96533.99
2019-01-27T09:42:19.188Z,96536.44
2019-01-27T09:48:28.367Z,96526.63
2019-01-27T09:54:46.178Z,96523.44
2019-01-27T10:01:07.520Z,96515.16
2019-01-27T10:07:31.716Z,96530.36
2019-01-27T10:13:43.821Z,96521.92
2019-01-27T10:19:50.015Z,96516.52
2019-01-27T10:25:56.494Z,96503.30
2019-01-27T10:32:02.728Z,96504.80
2019-01-27T10:38:12.001Z,96488.47
2019-01-27T10:44:27.922Z,96483.95
2019-01-27T10:50:34.155Z,96482.72
2019-01-27T10:56:42.901Z,96472.36
2019-01-27T11:02:56.409Z,96467.48
2019-01-27T11:09:02.598Z,96453.99
2019-01-27T11:15:17.340Z,96455.84
2019-01-27T11:21:23.709Z,96436.70
2019-01-27T11:27:35.001Z,96429.81
2019-01-27T11:33:47.141Z,96408.93
2019-01-27T11:40:08.139Z,96410.39
2019-01-27T11:46:27.515Z,96406.94
2019-01-27T11:52:32.201Z,96394.56
2019-01-27T11:58:36.869Z,96382.25
2019-01-27T12:04:43.174Z,96364.63
2019-01-27T12:10:47.822Z,96362.16
2019-01-27T12:16:52.401Z,96344.89
2019-01-27T12:22:56.973Z,96347.05
2019-01-27T12:29:01.588Z,96331.58
2019-01-27T12:35:09.178Z,96323.22
2019-01-27T12:41:13.809Z,96315.08
2019-01-27T12:47:18.355Z,96298.59
2019-01-27T12:53:22.970Z,96286.25
2019-01-27T12:59:27.603Z,96299.05
2019-01-27T13:05:35.396Z,96289.44
2019-01-27T13:11:40.475Z,96284.95
2019-01-27T13:17:48.514Z,96277.70
2019-01-27T13:23:53.425Z,96284.28
2019-01-27T13:29:57.972Z,96282.47
2019-01-27T13:36:03.140Z,96273.08
2019-01-27T13:42:07.921Z,96277.03
2019-01-27T13:48:12.885Z,96268.98
2019-01-27T13:54:17.762Z,96265.11
2019-01-27T14:00:29.636Z,96254.38
2019-01-27T14:06:34.167Z,96262.47
2019-01-27T14:12:38.793Z,96259.42
2019-01-27T14:18:44.977Z,96264.71
2019-01-27T14:24:49.552Z,96253.67
2019-01-27T14:30:54.176Z,96255.45
2019-01-27T14:36:58.797Z,96257.26
2019-01-27T14:43:03.518Z,96261.13
2019-01-27T14:49:08.058Z,96264.59
2019-01-27T14:55:17.073Z,96265.48
2019-01-27T15:01:21.633Z,96267.90
2019-01-27T15:07:26.510Z,96260.86
2019-01-27T15:13:31.395Z,96266.67
2019-01-27T15:19:35.948Z,96266.83
2019-01-27T15:25:40.826Z,96264.16
2019-01-27T15:31:45.615Z,96269.82
2019-01-27T15:37:50.347Z,96265.55
2019-01-27T15:43:55.248Z,96266.05
2019-01-27T15:50:00.266Z,96269.44
2019-01-27T15:56:05.290Z,96272.25
2019-01-27T16:02:13.826Z,96272.36
2019-01-27T16:08:18.444Z,96269.27
2019-01-27T16:14:23.024Z,96270.80
2019-01-27T16:20:28.529Z,96265.82
2019-01-27T16:26:33.442Z,96272.56
2019-01-27T16:32:38.051Z,96269.10
2019-01-27T16:38:46.475Z,96267.23
2019-01-27T16:44:51.354Z,96270.69
2019-01-27T16:50:59.736Z,96273.78
2019-01-27T16:57:04.523Z,96276.07
2019-01-27T17:03:09.691Z,96275.33
2019-01-27T17:09:14.560Z,96274.71
2019-01-27T17:15:19.509Z,96287.22
2019-01-27T17:21:24.054Z,96289.33
2019-01-27T17:27:28.684Z,96286.23
2019-01-27T17:33:33.291Z,96286.19
2019-01-27T17:39:37.847Z,96289.21
2019-01-27T17:45:42.475Z,96282.92
2019-01-27T17:51:47.202Z,96281.09
2019-01-27T17:57:56.265Z,96287.83
2019-01-27T18:04:00.669Z,96289.55
2019-01-27T18:10:14.253Z,96293.30
2019-01-27T18:16:21.672Z,96295.42
2019-01-27T18:22:26.464Z,96303.77
2019-01-27T18:28:31.104Z,96307.45
2019-01-27T18:34:35.706Z,96304.53
2019-01-27T18:40:41.069Z,96310.92
2019-01-27T18:46:45.775Z,96310.97
2019-01-27T18:52:52.026Z,96323.13
2019-01-27T18:59:16.470Z,96324.02
2019-01-27T19:05:34.766Z,96327.39
2019-01-27T19:11:47.035Z,96338.20
2019-01-27T19:18:11.820Z,96338.83
2019-01-27T19:24:20.953Z,96344.86
2019-01-27T19:30:30.265Z,96347.05
2019-01-27T19:36:45.316Z,96350.30
2019-01-27T19:42:54.740Z,96360.29
2019-01-27T19:49:03.850Z,96360.66
2019-01-27T19:55:27.497Z,96378.26
2019-01-27T20:01:49.667Z,96385.50
2019-01-27T20:07:58.344Z,96395.87
2019-01-27T20:14:07.193Z,96402.30
2019-01-27T20:20:18.940Z,96416.95
2019-01-27T20:26:25.404Z,96439.78
2019-01-27T20:32:34.565Z,96455.47
2019-01-27T20:38:43.588Z,96466.59
2019-01-27T20:45:02.293Z,96465.05
2019-01-27T20:51:10.635Z,96465.02
2019-01-27T20:57:22.658Z,96472.32
2019-01-27T21:03:28.933Z,96481.58
2019-01-27T21:09:49.141Z,96494.17
2019-01-27T21:15:58.154Z,96496.05
2019-01-27T21:22:05.678Z,96510.80
2019-01-27T21:28:10.329Z,96524.55
2019-01-27T21:34:14.977Z,96534.10
2019-01-27T21:40:20.025Z,96550.58
2019-01-27T21:46:25.163Z,96558.08
2019-01-27T21:52:29.722Z,96556.34
2019-01-27T21:58:34.304Z,96558.31
2019-01-27T22:04:38.860Z,96569.94
2019-01-27T22:10:43.639Z,96587.08
2019-01-27T22:16:49.583Z,96583.08
2019-01-27T22:22:54.214Z,96590.20
2019-01-27T22:28:58.762Z,96597.51
2019-01-27T22:35:03.379Z,96598.84
2019-01-27T22:41:09.087Z,96613.45
2019-01-27T22:47:14.046Z,96620.91
2019-01-27T22:53:18.676Z,96623.30
2019-01-27T22:59:23.416Z,96626.95
2019-01-27T23:05:28.561Z,96629.18
2019-01-27T23:11:33.163Z,96633.67
2019-01-27T23:17:37.858Z,96646.16
2019-01-27T23:23:43.557Z,96639.41
2019-01-27T23:29:48.281Z,96646.24
2019-01-27T23:42:03.140Z,96664.30
2019-01-27T23:48:07.887Z,96661.52
2019-01-27T23:54:12.839Z,96665.20
